sensor_id;sensor_type;location;lat;lon;timestamp;P1;durP1;ratioP1;P2;durP2;ratioP2
14748;SDS011;7466;53.574;9.976;2023-04-28T00:01:42;13.07;;;11.00;;
14748;SDS011;7466;53.574;9.976;2023-04-28T00:04:12;11.90;;;10.67;;
14748;SDS011;7466;53.574;9.976;2023-04-28T00:06:39;15.70;;;11.37;;
14748;SDS011;7466;53.574;9.976;2023-04-28T00:09:06;13.47;;;11.43;;
14748;SDS011;7466;53.574;9.976;2023-04-28T00:11:35;11.93;;;10.70;;
14748;SDS011;7466;53.574;9.976;2023-04-28T00:14:01;13.00;;;11.60;;
14748;SDS011;7466;53.574;9.976;2023-04-28T00:16:28;14.93;;;10.97;;
14748;SDS011;7466;53.574;9.976;2023-04-28T00:18:55;13.43;;;11.47;;
14748;SDS011;7466;53.574;9.976;2023-04-28T00:21:23;14.10;;;11.67;;
14748;SDS011;7466;53.574;9.976;2023-04-28T00:23:50;14.43;;;11.80;;
14748;SDS011;7466;53.574;9.976;2023-04-28T00:26:18;15.00;;;11.17;;
14748;SDS011;7466;53.574;9.976;2023-04-28T00:28:45;15.33;;;11.30;;
14748;SDS011;7466;53.574;9.976;2023-04-28T00:31:12;14.17;;;11.37;;
14748;SDS011;7466;53.574;9.976;2023-04-28T00:33:40;15.03;;;12.17;;
14748;SDS011;7466;53.574;9.976;2023-04-28T00:36:07;14.03;;;11.70;;
14748;SDS011;7466;53.574;9.976;2023-04-28T00:38:36;13.97;;;10.93;;
14748;SDS011;7466;53.574;9.976;2023-04-28T00:41:03;13.27;;;11.70;;
14748;SDS011;7466;53.574;9.976;2023-04-28T00:43:30;17.70;;;11.93;;
14748;SDS011;7466;53.574;9.976;2023-04-28T00:45:57;12.87;;;11.27;;
14748;SDS011;7466;53.574;9.976;2023-04-28T00:48:24;14.83;;;11.13;;
14748;SDS011;7466;53.574;9.976;2023-04-28T00:50:51;13.57;;;12.10;;
14748;SDS011;7466;53.574;9.976;2023-04-28T00:53:19;18.77;;;12.33;;
14748;SDS011;7466;53.574;9.976;2023-04-28T00:55:48;14.43;;;11.67;;
14748;SDS011;7466;53.574;9.976;2023-04-28T00:58:18;15.00;;;12.30;;
14748;SDS011;7466;53.574;9.976;2023-04-28T01:00:44;16.33;;;12.20;;
14748;SDS011;7466;53.574;9.976;2023-04-28T01:03:11;16.40;;;12.10;;
14748;SDS011;7466;53.574;9.976;2023-04-28T01:05:39;13.53;;;12.10;;
14748;SDS011;7466;53.574;9.976;2023-04-28T01:08:05;13.17;;;11.83;;
14748;SDS011;7466;53.574;9.976;2023-04-28T01:10:32;12.90;;;11.53;;
14748;SDS011;7466;53.574;9.976;2023-04-28T01:13:01;14.93;;;11.20;;
14748;SDS011;7466;53.574;9.976;2023-04-28T01:15:28;12.30;;;11.20;;
14748;SDS011;7466;53.574;9.976;2023-04-28T01:17:55;16.10;;;11.57;;
14748;SDS011;7466;53.574;9.976;2023-04-28T01:20:22;12.20;;;10.07;;
14748;SDS011;7466;53.574;9.976;2023-04-28T01:22:49;12.70;;;11.37;;
14748;SDS011;7466;53.574;9.976;2023-04-28T01:25:17;13.40;;;10.10;;
14748;SDS011;7466;53.574;9.976;2023-04-28T01:27:45;16.17;;;10.63;;
14748;SDS011;7466;53.574;9.976;2023-04-28T01:30:12;11.33;;;10.33;;
14748;SDS011;7466;53.574;9.976;2023-04-28T01:32:39;12.27;;;10.93;;
14748;SDS011;7466;53.574;9.976;2023-04-28T01:35:06;13.30;;;11.07;;
14748;SDS011;7466;53.574;9.976;2023-04-28T01:37:33;12.53;;;11.17;;
14748;SDS011;7466;53.574;9.976;2023-04-28T01:40:00;11.73;;;10.53;;
14748;SDS011;7466;53.574;9.976;2023-04-28T01:42:29;12.87;;;11.10;;
14748;SDS011;7466;53.574;9.976;2023-04-28T01:44:55;15.97;;;12.10;;
14748;SDS011;7466;53.574;9.976;2023-04-28T01:47:22;11.27;;;10.17;;
14748;SDS011;7466;53.574;9.976;2023-04-28T01:49:49;14.07;;;12.17;;
14748;SDS011;7466;53.574;9.976;2023-04-28T01:52:16;14.27;;;10.73;;
14748;SDS011;7466;53.574;9.976;2023-04-28T01:54:46;12.03;;;10.87;;
14748;SDS011;7466;53.574;9.976;2023-04-28T01:57:13;13.03;;;11.30;;
14748;SDS011;7466;53.574;9.976;2023-04-28T01:59:41;13.30;;;11.40;;
14748;SDS011;7466;53.574;9.976;2023-04-28T02:02:08;14.27;;;10.80;;
14748;SDS011;7466;53.574;9.976;2023-04-28T02:04:36;16.63;;;11.73;;
14748;SDS011;7466;53.574;9.976;2023-04-28T02:07:03;16.53;;;11.30;;
14748;SDS011;7466;53.574;9.976;2023-04-28T02:09:30;13.67;;;12.00;;
14748;SDS011;7466;53.574;9.976;2023-04-28T02:11:57;16.83;;;11.10;;
14748;SDS011;7466;53.574;9.976;2023-04-28T02:14:26;12.13;;;10.73;;
14748;SDS011;7466;53.574;9.976;2023-04-28T02:16:55;15.33;;;10.80;;
14748;SDS011;7466;53.574;9.976;2023-04-28T02:19:21;13.00;;;10.30;;
14748;SDS011;7466;53.574;9.976;2023-04-28T02:21:48;12.40;;;11.10;;
14748;SDS011;7466;53.574;9.976;2023-04-28T02:24:15;12.00;;;10.73;;
14748;SDS011;7466;53.574;9.976;2023-04-28T02:26:43;12.47;;;11.17;;
14748;SDS011;7466;53.574;9.976;2023-04-28T02:29:09;12.80;;;11.40;;
14748;SDS011;7466;53.574;9.976;2023-04-28T02:31:36;11.93;;;10.73;;
14748;SDS011;7466;53.574;9.976;2023-04-28T02:34:05;15.00;;;11.00;;
14748;SDS011;7466;53.574;9.976;2023-04-28T02:36:31;14.77;;;11.27;;
14748;SDS011;7466;53.574;9.976;2023-04-28T02:38:58;14.73;;;11.20;;
14748;SDS011;7466;53.574;9.976;2023-04-28T02:41:25;15.77;;;11.77;;
14748;SDS011;7466;53.574;9.976;2023-04-28T02:43:54;15.13;;;12.10;;
14748;SDS011;7466;53.574;9.976;2023-04-28T02:46:20;16.13;;;11.70;;
14748;SDS011;7466;53.574;9.976;2023-04-28T02:48:47;12.83;;;11.43;;
14748;SDS011;7466;53.574;9.976;2023-04-28T02:51:15;17.20;;;11.87;;
14748;SDS011;7466;53.574;9.976;2023-04-28T02:53:42;13.00;;;11.43;;
14748;SDS011;7466;53.574;9.976;2023-04-28T02:56:09;16.33;;;11.50;;
14748;SDS011;7466;53.574;9.976;2023-04-28T02:58:36;12.70;;;10.77;;
14748;SDS011;7466;53.574;9.976;2023-04-28T03:01:03;14.10;;;11.17;;
14748;SDS011;7466;53.574;9.976;2023-04-28T03:03:30;14.60;;;11.93;;
14748;SDS011;7466;53.574;9.976;2023-04-28T03:05:57;13.87;;;11.83;;
14748;SDS011;7466;53.574;9.976;2023-04-28T03:08:25;13.33;;;11.17;;
14748;SDS011;7466;53.574;9.976;2023-04-28T03:10:52;11.67;;;10.67;;
14748;SDS011;7466;53.574;9.976;2023-04-28T03:13:19;13.80;;;10.77;;
14748;SDS011;7466;53.574;9.976;2023-04-28T03:15:46;13.50;;;10.87;;
14748;SDS011;7466;53.574;9.976;2023-04-28T03:18:12;12.87;;;11.07;;
14748;SDS011;7466;53.574;9.976;2023-04-28T03:20:40;12.80;;;10.30;;
14748;SDS011;7466;53.574;9.976;2023-04-28T03:23:07;17.40;;;10.77;;
14748;SDS011;7466;53.574;9.976;2023-04-28T03:25:35;11.47;;;10.23;;
14748;SDS011;7466;53.574;9.976;2023-04-28T03:28:02;11.83;;;10.60;;
14748;SDS011;7466;53.574;9.976;2023-04-28T03:30:29;12.63;;;10.37;;
14748;SDS011;7466;53.574;9.976;2023-04-28T03:32:56;13.57;;;10.20;;
14748;SDS011;7466;53.574;9.976;2023-04-28T03:35:23;12.77;;;10.00;;
14748;SDS011;7466;53.574;9.976;2023-04-28T03:37:50;13.60;;;11.07;;
14748;SDS011;7466;53.574;9.976;2023-04-28T03:40:17;15.47;;;10.40;;
14748;SDS011;7466;53.574;9.976;2023-04-28T03:42:46;12.97;;;9.63;;
14748;SDS011;7466;53.574;9.976;2023-04-28T03:45:13;11.70;;;10.60;;
14748;SDS011;7466;53.574;9.976;2023-04-28T03:47:39;11.03;;;9.73;;
14748;SDS011;7466;53.574;9.976;2023-04-28T03:50:06;10.70;;;9.70;;
14748;SDS011;7466;53.574;9.976;2023-04-28T03:52:34;10.87;;;9.77;;
14748;SDS011;7466;53.574;9.976;2023-04-28T03:55:00;10.27;;;9.27;;
14748;SDS011;7466;53.574;9.976;2023-04-28T03:57:27;11.93;;;9.80;;
14748;SDS011;7466;53.574;9.976;2023-04-28T03:59:55;9.93;;;9.10;;
14748;SDS011;7466;53.574;9.976;2023-04-28T04:02:22;10.63;;;9.57;;
14748;SDS011;7466;53.574;9.976;2023-04-28T04:04:49;10.03;;;9.03;;
14748;SDS011;7466;53.574;9.976;2023-04-28T04:07:16;11.47;;;9.80;;
14748;SDS011;7466;53.574;9.976;2023-04-28T04:09:43;12.40;;;9.60;;
14748;SDS011;7466;53.574;9.976;2023-04-28T04:12:09;11.87;;;8.93;;
14748;SDS011;7466;53.574;9.976;2023-04-28T04:14:36;10.40;;;9.40;;
14748;SDS011;7466;53.574;9.976;2023-04-28T04:17:05;11.03;;;9.30;;
14748;SDS011;7466;53.574;9.976;2023-04-28T04:19:31;9.93;;;9.13;;
14748;SDS011;7466;53.574;9.976;2023-04-28T04:21:59;13.30;;;9.10;;
14748;SDS011;7466;53.574;9.976;2023-04-28T04:24:29;11.97;;;8.87;;
14748;SDS011;7466;53.574;9.976;2023-04-28T04:27:00;12.40;;;9.10;;
14748;SDS011;7466;53.574;9.976;2023-04-28T04:29:27;10.97;;;7.60;;
14748;SDS011;7466;53.574;9.976;2023-04-28T04:31:56;9.67;;;8.83;;
14748;SDS011;7466;53.574;9.976;2023-04-28T04:34:24;9.40;;;8.37;;
14748;SDS011;7466;53.574;9.976;2023-04-28T04:36:51;10.03;;;7.77;;
14748;SDS011;7466;53.574;9.976;2023-04-28T04:39:18;9.63;;;8.73;;
14748;SDS011;7466;53.574;9.976;2023-04-28T04:41:45;10.17;;;8.63;;
14748;SDS011;7466;53.574;9.976;2023-04-28T04:44:12;9.47;;;8.30;;
14748;SDS011;7466;53.574;9.976;2023-04-28T04:46:38;9.67;;;8.40;;
14748;SDS011;7466;53.574;9.976;2023-04-28T04:49:05;8.60;;;7.80;;
14748;SDS011;7466;53.574;9.976;2023-04-28T04:51:34;9.67;;;8.03;;
14748;SDS011;7466;53.574;9.976;2023-04-28T04:54:08;8.90;;;7.87;;
14748;SDS011;7466;53.574;9.976;2023-04-28T04:56:35;9.43;;;8.17;;
14748;SDS011;7466;53.574;9.976;2023-04-28T04:59:02;9.30;;;7.57;;
14748;SDS011;7466;53.574;9.976;2023-04-28T05:01:29;9.63;;;7.77;;
14748;SDS011;7466;53.574;9.976;2023-04-28T05:03:56;8.93;;;7.70;;
14748;SDS011;7466;53.574;9.976;2023-04-28T05:06:22;8.53;;;7.67;;
14748;SDS011;7466;53.574;9.976;2023-04-28T05:08:51;9.90;;;7.03;;
14748;SDS011;7466;53.574;9.976;2023-04-28T05:11:17;7.90;;;7.10;;
14748;SDS011;7466;53.574;9.976;2023-04-28T05:13:44;7.93;;;7.13;;
14748;SDS011;7466;53.574;9.976;2023-04-28T05:16:11;7.97;;;7.17;;
14748;SDS011;7466;53.574;9.976;2023-04-28T05:18:38;8.33;;;7.57;;
14748;SDS011;7466;53.574;9.976;2023-04-28T05:21:05;9.07;;;7.40;;
14748;SDS011;7466;53.574;9.976;2023-04-28T05:23:32;7.97;;;7.37;;
14748;SDS011;7466;53.574;9.976;2023-04-28T05:26:00;8.07;;;7.27;;
14748;SDS011;7466;53.574;9.976;2023-04-28T05:28:28;9.90;;;6.23;;
14748;SDS011;7466;53.574;9.976;2023-04-28T05:30:55;8.40;;;6.60;;
14748;SDS011;7466;53.574;9.976;2023-04-28T05:33:21;8.53;;;6.23;;
14748;SDS011;7466;53.574;9.976;2023-04-28T05:35:48;7.10;;;6.50;;
14748;SDS011;7466;53.574;9.976;2023-04-28T05:38:15;7.00;;;6.33;;
14748;SDS011;7466;53.574;9.976;2023-04-28T05:40:42;8.00;;;6.63;;
14748;SDS011;7466;53.574;9.976;2023-04-28T05:43:11;11.40;;;5.90;;
14748;SDS011;7466;53.574;9.976;2023-04-28T05:45:38;8.27;;;7.33;;
14748;SDS011;7466;53.574;9.976;2023-04-28T05:48:06;8.50;;;5.83;;
14748;SDS011;7466;53.574;9.976;2023-04-28T05:50:34;13.93;;;6.07;;
14748;SDS011;7466;53.574;9.976;2023-04-28T05:53:01;6.30;;;5.80;;
14748;SDS011;7466;53.574;9.976;2023-04-28T05:55:27;6.77;;;5.77;;
14748;SDS011;7466;53.574;9.976;2023-04-28T05:57:55;10.80;;;6.07;;
14748;SDS011;7466;53.574;9.976;2023-04-28T06:00:24;9.17;;;5.13;;
14748;SDS011;7466;53.574;9.976;2023-04-28T06:02:52;6.83;;;4.80;;
14748;SDS011;7466;53.574;9.976;2023-04-28T06:05:20;5.33;;;4.90;;
14748;SDS011;7466;53.574;9.976;2023-04-28T06:07:47;5.00;;;4.60;;
14748;SDS011;7466;53.574;9.976;2023-04-28T06:10:14;6.43;;;4.87;;
14748;SDS011;7466;53.574;9.976;2023-04-28T06:12:41;4.93;;;4.53;;
14748;SDS011;7466;53.574;9.976;2023-04-28T06:15:09;5.73;;;4.47;;
14748;SDS011;7466;53.574;9.976;2023-04-28T06:17:38;7.17;;;4.50;;
14748;SDS011;7466;53.574;9.976;2023-04-28T06:20:06;4.60;;;4.20;;
14748;SDS011;7466;53.574;9.976;2023-04-28T06:22:35;6.93;;;4.40;;
14748;SDS011;7466;53.574;9.976;2023-04-28T06:25:02;4.80;;;4.03;;
14748;SDS011;7466;53.574;9.976;2023-04-28T06:27:29;5.97;;;5.37;;
14748;SDS011;7466;53.574;9.976;2023-04-28T06:29:57;5.83;;;4.10;;
14748;SDS011;7466;53.574;9.976;2023-04-28T06:32:23;10.10;;;4.40;;
14748;SDS011;7466;53.574;9.976;2023-04-28T06:34:52;4.73;;;3.90;;
14748;SDS011;7466;53.574;9.976;2023-04-28T06:37:19;4.43;;;3.83;;
14748;SDS011;7466;53.574;9.976;2023-04-28T06:39:46;4.80;;;4.30;;
14748;SDS011;7466;53.574;9.976;2023-04-28T06:42:12;8.63;;;4.13;;
14748;SDS011;7466;53.574;9.976;2023-04-28T06:44:42;4.07;;;3.47;;
14748;SDS011;7466;53.574;9.976;2023-04-28T06:47:09;5.23;;;3.80;;
14748;SDS011;7466;53.574;9.976;2023-04-28T06:49:36;4.77;;;3.90;;
14748;SDS011;7466;53.574;9.976;2023-04-28T06:52:09;5.10;;;3.30;;
14748;SDS011;7466;53.574;9.976;2023-04-28T06:54:44;5.13;;;3.40;;
14748;SDS011;7466;53.574;9.976;2023-04-28T06:57:11;8.97;;;3.83;;
14748;SDS011;7466;53.574;9.976;2023-04-28T06:59:38;5.50;;;3.13;;
14748;SDS011;7466;53.574;9.976;2023-04-28T07:02:15;3.80;;;3.30;;
14748;SDS011;7466;53.574;9.976;2023-04-28T07:04:43;6.90;;;3.50;;
14748;SDS011;7466;53.574;9.976;2023-04-28T07:07:11;6.83;;;3.60;;
14748;SDS011;7466;53.574;9.976;2023-04-28T07:09:38;4.87;;;3.20;;
14748;SDS011;7466;53.574;9.976;2023-04-28T07:12:11;6.77;;;2.90;;
14748;SDS011;7466;53.574;9.976;2023-04-28T07:14:44;9.07;;;3.03;;
14748;SDS011;7466;53.574;9.976;2023-04-28T07:17:11;4.60;;;3.03;;
14748;SDS011;7466;53.574;9.976;2023-04-28T07:19:38;4.43;;;3.10;;
14748;SDS011;7466;53.574;9.976;2023-04-28T07:22:07;4.07;;;3.47;;
14748;SDS011;7466;53.574;9.976;2023-04-28T07:24:35;3.50;;;3.20;;
14748;SDS011;7466;53.574;9.976;2023-04-28T07:27:03;6.97;;;3.63;;
14748;SDS011;7466;53.574;9.976;2023-04-28T07:29:30;3.13;;;2.60;;
14748;SDS011;7466;53.574;9.976;2023-04-28T07:31:59;3.67;;;3.10;;
14748;SDS011;7466;53.574;9.976;2023-04-28T07:34:26;4.37;;;2.90;;
14748;SDS011;7466;53.574;9.976;2023-04-28T07:36:53;8.83;;;3.40;;
14748;SDS011;7466;53.574;9.976;2023-04-28T07:39:20;5.87;;;3.50;;
14748;SDS011;7466;53.574;9.976;2023-04-28T07:41:48;3.57;;;3.27;;
14748;SDS011;7466;53.574;9.976;2023-04-28T07:44:16;5.17;;;3.67;;
14748;SDS011;7466;53.574;9.976;2023-04-28T07:46:43;5.80;;;3.40;;
14748;SDS011;7466;53.574;9.976;2023-04-28T07:49:10;3.83;;;3.07;;
14748;SDS011;7466;53.574;9.976;2023-04-28T07:51:36;3.20;;;2.97;;
14748;SDS011;7466;53.574;9.976;2023-04-28T07:54:05;5.60;;;3.27;;
14748;SDS011;7466;53.574;9.976;2023-04-28T07:56:32;5.73;;;3.17;;
14748;SDS011;7466;53.574;9.976;2023-04-28T07:59:00;4.87;;;2.90;;
14748;SDS011;7466;53.574;9.976;2023-04-28T08:01:27;4.73;;;2.93;;
14748;SDS011;7466;53.574;9.976;2023-04-28T08:03:54;5.70;;;3.10;;
14748;SDS011;7466;53.574;9.976;2023-04-28T08:06:27;5.60;;;3.37;;
14748;SDS011;7466;53.574;9.976;2023-04-28T08:08:54;4.83;;;3.70;;
14748;SDS011;7466;53.574;9.976;2023-04-28T08:11:21;7.40;;;3.13;;
14748;SDS011;7466;53.574;9.976;2023-04-28T08:13:48;8.80;;;3.33;;
14748;SDS011;7466;53.574;9.976;2023-04-28T08:16:17;5.97;;;3.10;;
14748;SDS011;7466;53.574;9.976;2023-04-28T08:18:44;4.57;;;3.10;;
14748;SDS011;7466;53.574;9.976;2023-04-28T08:21:11;5.47;;;3.10;;
14748;SDS011;7466;53.574;9.976;2023-04-28T08:23:38;3.63;;;3.03;;
14748;SDS011;7466;53.574;9.976;2023-04-28T08:26:06;5.40;;;3.30;;
14748;SDS011;7466;53.574;9.976;2023-04-28T08:28:33;5.50;;;3.40;;
14748;SDS011;7466;53.574;9.976;2023-04-28T08:31:00;4.70;;;3.20;;
14748;SDS011;7466;53.574;9.976;2023-04-28T08:33:34;3.43;;;3.13;;
14748;SDS011;7466;53.574;9.976;2023-04-28T08:36:01;9.57;;;3.70;;
14748;SDS011;7466;53.574;9.976;2023-04-28T08:38:28;6.63;;;3.77;;
14748;SDS011;7466;53.574;9.976;2023-04-28T08:40:55;5.33;;;3.47;;
14748;SDS011;7466;53.574;9.976;2023-04-28T08:43:23;8.13;;;3.50;;
14748;SDS011;7466;53.574;9.976;2023-04-28T08:45:52;6.43;;;3.10;;
14748;SDS011;7466;53.574;9.976;2023-04-28T08:48:20;7.97;;;3.40;;
14748;SDS011;7466;53.574;9.976;2023-04-28T08:50:50;5.67;;;3.60;;
14748;SDS011;7466;53.574;9.976;2023-04-28T08:53:20;5.20;;;3.60;;
14748;SDS011;7466;53.574;9.976;2023-04-28T08:55:51;5.93;;;3.37;;
14748;SDS011;7466;53.574;9.976;2023-04-28T08:58:21;5.17;;;3.73;;
14748;SDS011;7466;53.574;9.976;2023-04-28T09:00:49;5.20;;;3.37;;
14748;SDS011;7466;53.574;9.976;2023-04-28T09:03:16;5.23;;;3.37;;
14748;SDS011;7466;53.574;9.976;2023-04-28T09:05:45;5.03;;;3.37;;
14748;SDS011;7466;53.574;9.976;2023-04-28T09:08:14;4.97;;;3.77;;
14748;SDS011;7466;53.574;9.976;2023-04-28T09:10:45;7.80;;;4.00;;
14748;SDS011;7466;53.574;9.976;2023-04-28T09:13:22;7.37;;;4.00;;
14748;SDS011;7466;53.574;9.976;2023-04-28T09:15:50;5.67;;;3.83;;
14748;SDS011;7466;53.574;9.976;2023-04-28T09:18:25;6.57;;;4.20;;
14748;SDS011;7466;53.574;9.976;2023-04-28T09:21:01;7.67;;;4.00;;
14748;SDS011;7466;53.574;9.976;2023-04-28T09:23:31;3.70;;;3.30;;
14748;SDS011;7466;53.574;9.976;2023-04-28T09:25:59;6.37;;;3.77;;
14748;SDS011;7466;53.574;9.976;2023-04-28T09:28:27;8.57;;;4.20;;
14748;SDS011;7466;53.574;9.976;2023-04-28T09:30:55;7.13;;;3.60;;
14748;SDS011;7466;53.574;9.976;2023-04-28T09:33:22;8.30;;;3.60;;
14748;SDS011;7466;53.574;9.976;2023-04-28T09:35:49;9.30;;;4.07;;
14748;SDS011;7466;53.574;9.976;2023-04-28T09:38:17;6.63;;;3.87;;
14748;SDS011;7466;53.574;9.976;2023-04-28T09:40:51;6.27;;;4.07;;
14748;SDS011;7466;53.574;9.976;2023-04-28T09:43:23;9.13;;;4.23;;
14748;SDS011;7466;53.574;9.976;2023-04-28T09:45:54;7.50;;;3.90;;
14748;SDS011;7466;53.574;9.976;2023-04-28T09:48:26;5.60;;;3.83;;
14748;SDS011;7466;53.574;9.976;2023-04-28T09:50:55;7.03;;;4.27;;
14748;SDS011;7466;53.574;9.976;2023-04-28T09:53:23;4.87;;;3.73;;
14748;SDS011;7466;53.574;9.976;2023-04-28T09:55:53;4.17;;;3.87;;
14748;SDS011;7466;53.574;9.976;2023-04-28T09:58:22;4.73;;;3.63;;
14748;SDS011;7466;53.574;9.976;2023-04-28T10:00:51;4.07;;;3.67;;
14748;SDS011;7466;53.574;9.976;2023-04-28T10:03:22;5.17;;;4.40;;
14748;SDS011;7466;53.574;9.976;2023-04-28T10:05:53;4.30;;;3.90;;
14748;SDS011;7466;53.574;9.976;2023-04-28T10:08:22;7.57;;;4.03;;
14748;SDS011;7466;53.574;9.976;2023-04-28T10:10:52;8.00;;;4.00;;
14748;SDS011;7466;53.574;9.976;2023-04-28T10:13:22;7.90;;;4.27;;
14748;SDS011;7466;53.574;9.976;2023-04-28T10:16:03;4.73;;;3.90;;
14748;SDS011;7466;53.574;9.976;2023-04-28T10:18:33;4.77;;;4.03;;
14748;SDS011;7466;53.574;9.976;2023-04-28T10:21:02;6.43;;;4.20;;
14748;SDS011;7466;53.574;9.976;2023-04-28T10:29:30;5.13;;;3.93;;
14748;SDS011;7466;53.574;9.976;2023-04-28T10:32:14;5.10;;;4.00;;
14748;SDS011;7466;53.574;9.976;2023-04-28T10:34:45;5.20;;;4.27;;
14748;SDS011;7466;53.574;9.976;2023-04-28T10:37:12;7.17;;;4.63;;
14748;SDS011;7466;53.574;9.976;2023-04-28T10:42:57;7.00;;;4.20;;
14748;SDS011;7466;53.574;9.976;2023-04-28T10:48:52;5.07;;;4.10;;
14748;SDS011;7466;53.574;9.976;2023-04-28T10:51:32;8.93;;;4.50;;
14748;SDS011;7466;53.574;9.976;2023-04-28T10:59:47;8.60;;;4.50;;
14748;SDS011;7466;53.574;9.976;2023-04-28T11:05:09;7.70;;;4.20;;
14748;SDS011;7466;53.574;9.976;2023-04-28T11:07:40;7.70;;;4.17;;
14748;SDS011;7466;53.574;9.976;2023-04-28T11:13:27;5.00;;;4.50;;
14748;SDS011;7466;53.574;9.976;2023-04-28T11:16:02;7.17;;;4.87;;
14748;SDS011;7466;53.574;9.976;2023-04-28T11:18:30;5.87;;;4.50;;
14748;SDS011;7466;53.574;9.976;2023-04-28T11:21:03;6.30;;;4.70;;
14748;SDS011;7466;53.574;9.976;2023-04-28T11:23:30;5.20;;;4.70;;
14748;SDS011;7466;53.574;9.976;2023-04-28T11:25:57;6.33;;;4.40;;
14748;SDS011;7466;53.574;9.976;2023-04-28T11:28:24;5.13;;;4.63;;
14748;SDS011;7466;53.574;9.976;2023-04-28T11:30:51;7.83;;;4.90;;
14748;SDS011;7466;53.574;9.976;2023-04-28T11:33:20;5.47;;;4.97;;
14748;SDS011;7466;53.574;9.976;2023-04-28T11:35:47;6.87;;;5.00;;
14748;SDS011;7466;53.574;9.976;2023-04-28T11:38:19;5.70;;;4.93;;
14748;SDS011;7466;53.574;9.976;2023-04-28T11:40:55;6.60;;;4.67;;
14748;SDS011;7466;53.574;9.976;2023-04-28T11:43:27;5.13;;;4.60;;
14748;SDS011;7466;53.574;9.976;2023-04-28T11:45:54;7.17;;;5.10;;
14748;SDS011;7466;53.574;9.976;2023-04-28T11:48:23;5.63;;;4.40;;
14748;SDS011;7466;53.574;9.976;2023-04-28T11:50:50;9.67;;;4.93;;
14748;SDS011;7466;53.574;9.976;2023-04-28T11:53:17;5.97;;;4.60;;
14748;SDS011;7466;53.574;9.976;2023-04-28T11:55:45;10.20;;;4.70;;
14748;SDS011;7466;53.574;9.976;2023-04-28T11:58:18;4.77;;;4.33;;
14748;SDS011;7466;53.574;9.976;2023-04-28T12:03:42;6.27;;;4.80;;
14748;SDS011;7466;53.574;9.976;2023-04-28T12:06:09;5.20;;;4.70;;
14748;SDS011;7466;53.574;9.976;2023-04-28T12:08:36;6.57;;;4.47;;
14748;SDS011;7466;53.574;9.976;2023-04-28T12:11:08;7.37;;;4.93;;
14748;SDS011;7466;53.574;9.976;2023-04-28T12:13:37;6.23;;;4.20;;
14748;SDS011;7466;53.574;9.976;2023-04-28T12:16:05;6.50;;;4.87;;
14748;SDS011;7466;53.574;9.976;2023-04-28T12:18:33;6.13;;;4.63;;
14748;SDS011;7466;53.574;9.976;2023-04-28T12:21:02;10.70;;;4.90;;
14748;SDS011;7466;53.574;9.976;2023-04-28T12:23:30;8.57;;;5.00;;
14748;SDS011;7466;53.574;9.976;2023-04-28T12:25:58;5.33;;;4.80;;
14748;SDS011;7466;53.574;9.976;2023-04-28T12:28:34;5.17;;;4.40;;
14748;SDS011;7466;53.574;9.976;2023-04-28T12:31:03;5.00;;;4.60;;
14748;SDS011;7466;53.574;9.976;2023-04-28T12:33:31;9.43;;;5.13;;
14748;SDS011;7466;53.574;9.976;2023-04-28T12:36:03;8.47;;;4.67;;
14748;SDS011;7466;53.574;9.976;2023-04-28T12:38:31;5.17;;;4.77;;
14748;SDS011;7466;53.574;9.976;2023-04-28T12:41:00;7.47;;;4.77;;
14748;SDS011;7466;53.574;9.976;2023-04-28T12:43:26;8.87;;;4.60;;
14748;SDS011;7466;53.574;9.976;2023-04-28T12:45:53;6.93;;;4.73;;
14748;SDS011;7466;53.574;9.976;2023-04-28T12:48:21;8.47;;;4.83;;
14748;SDS011;7466;53.574;9.976;2023-04-28T12:50:49;6.17;;;4.87;;
14748;SDS011;7466;53.574;9.976;2023-04-28T12:53:18;5.47;;;5.00;;
14748;SDS011;7466;53.574;9.976;2023-04-28T12:55:45;5.17;;;4.67;;
14748;SDS011;7466;53.574;9.976;2023-04-28T12:58:13;9.00;;;5.10;;
14748;SDS011;7466;53.574;9.976;2023-04-28T13:00:40;6.80;;;4.63;;
14748;SDS011;7466;53.574;9.976;2023-04-28T13:03:07;6.00;;;4.77;;
14748;SDS011;7466;53.574;9.976;2023-04-28T13:05:34;8.60;;;4.90;;
14748;SDS011;7466;53.574;9.976;2023-04-28T13:08:01;5.77;;;5.17;;
14748;SDS011;7466;53.574;9.976;2023-04-28T13:10:30;11.30;;;4.80;;
14748;SDS011;7466;53.574;9.976;2023-04-28T13:12:57;5.50;;;5.00;;
14748;SDS011;7466;53.574;9.976;2023-04-28T13:15:28;8.40;;;4.60;;
14748;SDS011;7466;53.574;9.976;2023-04-28T13:17:56;6.97;;;5.13;;
14748;SDS011;7466;53.574;9.976;2023-04-28T13:20:23;7.00;;;5.07;;
14748;SDS011;7466;53.574;9.976;2023-04-28T13:22:50;9.07;;;5.00;;
14748;SDS011;7466;53.574;9.976;2023-04-28T13:25:17;8.43;;;5.23;;
14748;SDS011;7466;53.574;9.976;2023-04-28T13:27:46;6.17;;;4.93;;
14748;SDS011;7466;53.574;9.976;2023-04-28T13:30:13;8.50;;;5.23;;
14748;SDS011;7466;53.574;9.976;2023-04-28T13:32:40;11.90;;;5.50;;
14748;SDS011;7466;53.574;9.976;2023-04-28T13:35:06;9.33;;;5.63;;
14748;SDS011;7466;53.574;9.976;2023-04-28T13:37:34;7.53;;;5.37;;
14748;SDS011;7466;53.574;9.976;2023-04-28T13:40:07;12.63;;;5.50;;
14748;SDS011;7466;53.574;9.976;2023-04-28T13:42:35;5.17;;;4.63;;
14748;SDS011;7466;53.574;9.976;2023-04-28T13:45:04;16.10;;;5.93;;
14748;SDS011;7466;53.574;9.976;2023-04-28T13:47:31;5.77;;;5.10;;
14748;SDS011;7466;53.574;9.976;2023-04-28T13:49:58;6.43;;;5.67;;
14748;SDS011;7466;53.574;9.976;2023-04-28T13:52:25;9.20;;;5.40;;
14748;SDS011;7466;53.574;9.976;2023-04-28T13:54:52;7.60;;;5.90;;
14748;SDS011;7466;53.574;9.976;2023-04-28T13:57:19;8.10;;;5.23;;
14748;SDS011;7466;53.574;9.976;2023-04-28T13:59:47;8.47;;;5.53;;
14748;SDS011;7466;53.574;9.976;2023-04-28T14:02:15;10.20;;;6.00;;
14748;SDS011;7466;53.574;9.976;2023-04-28T14:04:49;9.00;;;5.70;;
14748;SDS011;7466;53.574;9.976;2023-04-28T14:07:17;7.77;;;6.27;;
14748;SDS011;7466;53.574;9.976;2023-04-28T14:09:44;11.83;;;6.47;;
14748;SDS011;7466;53.574;9.976;2023-04-28T14:12:12;11.00;;;6.00;;
14748;SDS011;7466;53.574;9.976;2023-04-28T14:14:39;9.90;;;6.40;;
14748;SDS011;7466;53.574;9.976;2023-04-28T14:17:06;8.43;;;5.50;;
14748;SDS011;7466;53.574;9.976;2023-04-28T14:19:35;7.70;;;5.80;;
14748;SDS011;7466;53.574;9.976;2023-04-28T14:22:02;6.37;;;5.77;;
14748;SDS011;7466;53.574;9.976;2023-04-28T14:24:31;6.63;;;5.80;;
14748;SDS011;7466;53.574;9.976;2023-04-28T14:26:58;6.60;;;5.93;;
14748;SDS011;7466;53.574;9.976;2023-04-28T14:29:24;10.43;;;6.50;;
14748;SDS011;7466;53.574;9.976;2023-04-28T14:31:52;6.87;;;6.17;;
14748;SDS011;7466;53.574;9.976;2023-04-28T14:34:19;7.33;;;6.53;;
14748;SDS011;7466;53.574;9.976;2023-04-28T14:36:47;6.70;;;5.90;;
14748;SDS011;7466;53.574;9.976;2023-04-28T14:39:14;13.10;;;6.60;;
14748;SDS011;7466;53.574;9.976;2023-04-28T14:41:41;9.63;;;6.37;;
14748;SDS011;7466;53.574;9.976;2023-04-28T14:44:08;7.40;;;6.33;;
14748;SDS011;7466;53.574;9.976;2023-04-28T14:46:35;7.87;;;6.47;;
14748;SDS011;7466;53.574;9.976;2023-04-28T14:49:02;9.70;;;6.53;;
14748;SDS011;7466;53.574;9.976;2023-04-28T14:51:30;10.63;;;6.83;;
14748;SDS011;7466;53.574;9.976;2023-04-28T14:53:58;7.33;;;6.60;;
14748;SDS011;7466;53.574;9.976;2023-04-28T14:56:26;7.37;;;6.43;;
14748;SDS011;7466;53.574;9.976;2023-04-28T14:58:53;8.30;;;6.80;;
14748;SDS011;7466;53.574;9.976;2023-04-28T15:01:20;13.13;;;7.30;;
14748;SDS011;7466;53.574;9.976;2023-04-28T15:03:52;10.87;;;6.97;;
14748;SDS011;7466;53.574;9.976;2023-04-28T15:06:23;8.30;;;7.10;;
14748;SDS011;7466;53.574;9.976;2023-04-28T15:08:53;9.03;;;7.00;;
14748;SDS011;7466;53.574;9.976;2023-04-28T15:11:22;11.30;;;7.40;;
14748;SDS011;7466;53.574;9.976;2023-04-28T15:13:49;8.00;;;7.17;;
14748;SDS011;7466;53.574;9.976;2023-04-28T15:16:15;10.67;;;8.00;;
14748;SDS011;7466;53.574;9.976;2023-04-28T15:18:42;10.40;;;6.90;;
14748;SDS011;7466;53.574;9.976;2023-04-28T15:21:10;8.90;;;7.07;;
14748;SDS011;7466;53.574;9.976;2023-04-28T15:23:37;10.43;;;7.20;;
14748;SDS011;7466;53.574;9.976;2023-04-28T15:26:04;7.97;;;6.93;;